ADDS METAR Data INFO
IDs: Format: Raw Decoded Include TAF

Data at: 0311 UTC 20 Jul 2018

KCQX 200252Z AUTO 00000KT 10SM CLR 17/14 A3015 RMK AO2 SLP211 T01670144 51012 TSNO
KCQX 200152Z AUTO 20003KT 10SM CLR 18/15 A3015 RMK AO2 SLP210 T01780150 TSNO
KCQX 200052Z AUTO 19003KT 10SM CLR 18/15 A3013 RMK AO2 SLP204 T01780150 TSNO
KCQX 192352Z AUTO 00000KT 10SM CLR 19/15 A3012 RMK AO2 SLP199 T01940150 10261 20194 53009 TSNO
KCQX 192252Z AUTO 06004KT 10SM CLR 23/10 A3010 RMK AO2 SLP194 T02280100 TSNO
KCQX 192152Z AUTO 06007KT 10SM CLR 24/10 A3009 RMK AO2 SLP190 T02390100 TSNO
KCQX 192052Z AUTO 07008KT 10SM CLR 24/11 A3009 RMK AO2 SLP190 T02440111 55003 TSNO
KCQX 191952Z AUTO VRB05KT 10SM CLR 25/09 A3009 RMK AO2 SLP189 T02500089 TSNO
KCQX 191852Z AUTO 32006KT 10SM CLR 26/07 A3009 RMK AO2 SLP190 T02560067 TSNO
KCQX 191752Z AUTO 05007KT 10SM CLR 24/12 A3010 RMK AO2 SLP193 T02390122 10250 20217 50002 TSNO
KCQX 191652Z AUTO 07010KT 10SM CLR 24/13 A3010 RMK AO2 SLP194 T02390133 TSNO
KCQX 191552Z AUTO 06010KT 10SM CLR 23/13 A3010 RMK AO2 SLP193 T02330128 TSNO
KCQX 191452Z AUTO 06011KT 10SM CLR 23/13 A3009 RMK AO2 SLP190 T02280128 51015 TSNO
KCQX 191352Z AUTO 04007KT 360V060 10SM CLR 23/13 A3008 RMK AO2 SLP188 T02280128 TSNO
KCQX 191152Z AUTO 04004KT 10SM CLR 22/13 A3005 RMK AO2 SLP176 T02170133 10217 20167 51014 TSNO
KCQX 191052Z AUTO 03004KT 10SM CLR 20/13 A3004 RMK AO2 SLP172 T02000133 TSNO
KCQX 190952Z AUTO 04005KT 10SM CLR 19/13 A3002 RMK AO2 SLP168 T01890133 TSNO
KCQX 190852Z AUTO 03004KT 10SM CLR 18/14 A3001 RMK AO2 SLP162 T01780139 53011 TSNO
KCQX 190752Z AUTO 35004KT 10SM CLR 18/13 A2999 RMK AO2 SLP156 T01780133 TSNO
KCQX 190652Z AUTO 00000KT 10SM CLR 18/15 A2998 RMK AO2 SLP154 T01780150 TSNO
KCQX 190552Z AUTO 33003KT 10SM CLR 17/15 A2997 RMK AO2 SLP151 T01670150 10211 20161 53010 TSNO
KCQX 190452Z AUTO 32003KT 10SM CLR 17/14 A2996 RMK AO2 SLP147 T01670144 402560161 TSNO
KCQX 190352Z AUTO 34003KT 10SM CLR 17/15 A2995 RMK AO2 SLP143 T01670150 TSNO
KCQX 190252Z AUTO 36003KT 10SM CLR 17/16 A2994 RMK AO2 SLP141 T01720156 52014 TSNO
KCQX 190152Z AUTO 02003KT 10SM CLR 18/16 A2993 RMK AO2 SLP136 T01830156 TSNO
KCQX 190052Z AUTO 03003KT 10SM CLR 20/16 A2992 RMK AO2 SLP131 T02000156 TSNO
KCQX 182352Z AUTO 02004KT 10SM CLR 21/16 A2990 RMK AO2 SLP126 T02110161 10256 20211 53011 TSNO
KCQX 182252Z AUTO VRB06KT 10SM CLR 23/15 A2988 RMK AO2 SLP120 T02280150 TSNO
KCQX 182152Z AUTO 04008KT 10SM CLR 24/15 A2988 RMK AO2 SLP118 T02390150 TSNO
KCQX 182052Z AUTO 06008KT 10SM CLR 24/16 A2987 RMK AO2 SLP115 T02440161 51007 TSNO
KCQX 181952Z AUTO 06012KT 10SM FEW080 24/17 A2986 RMK AO2 SLP114 T02440167 TSNO
KCQX 181852Z AUTO 05010KT 10SM CLR 24/17 A2985 RMK AO2 SLP110 T02440172 TSNO
KCQX 181752Z AUTO 05009KT 10SM BKN095 25/16 A2985 RMK AO2 SLP108 60000 T02500161 10250 20217 58000 TSNO
KCQX 181652Z AUTO 04012KT 10SM SCT075 BKN095 24/16 A2985 RMK AO2 SLP109 T02440161 TSNO
KCQX 181559Z AUTO 03009G17KT 10SM FEW011 SCT023 BKN080 24/17 A2985 RMK AO2 T02440167 TSNO
KCQX 181552Z AUTO 04010KT 10SM FEW012 SCT019 BKN025 24/17 A2985 RMK AO2 SLP108 T02390172 TSNO
KCQX 181550Z AUTO 04010G16KT 10SM FEW012 SCT019 BKN025 24/17 A2985 RMK AO2 TSNO